Time;durP1;ratioP1;P1;durP2;ratioP2;P2;SDS_P1;SDS_P2;PMS_P1;PMS_P2;Temp;Humidity;BMP_temperature;BMP_pressure;BME280_temperature;BME280_humidity;BME280_pressure;Samples;Min_cycle;Max_cycle;Signal;HPM_P1;HPM_P2
2021/04/16 00:01:46;;;;;;;;;;;;;;;-3.91;100.00;94342.56;5096644;28;20011;-77
2021/04/16 00:04:12;;;;;;;;;;;;;;;-3.83;100.00;94345.44;5096713;28;20429;-77
2021/04/16 00:06:37;;;;;;;;;;;;;;;-3.83;100.00;94345.44;5096683;28;19924;-77
2021/04/16 00:09:04;;;;;;;;;;;;;;;-3.89;100.00;94328.00;5096594;28;19924;-76
2021/04/16 00:11:30;;;;;;;;;;;;;;;-3.91;100.00;94337.47;5096099;28;19931;-77
2021/04/16 00:13:56;;;;;;;;;;;;;;;-3.99;100.00;94334.59;5096383;28;19932;-76
2021/04/16 00:16:23;;;;;;;;;;;;;;;-4.05;100.00;94329.88;5096330;28;19924;-76
2021/04/16 00:18:49;;;;;;;;;;;;;;;-3.87;100.00;94338.09;5096607;28;19924;-77
2021/04/16 00:21:16;;;;;;;;;;;;;;;-3.84;100.00;94328.50;5096061;28;19950;-77
2021/04/16 00:23:42;;;;;;;;;;;;;;;-3.80;100.00;94329.13;5096506;28;19924;-76
2021/04/16 00:26:08;;;;;;;;;;;;;;;-3.69;100.00;94323.31;5096191;28;19924;-77
2021/04/16 00:28:36;;;;;;;;;;;;;;;-3.69;100.00;94321.59;5095701;28;19924;-76
2021/04/16 00:31:05;;;;;;;;;;;;;;;-3.70;100.00;94321.69;5096322;28;19931;-77
2021/04/16 00:33:33;;;;;;;;;;;;;;;-3.72;100.00;94312.38;5094742;28;19931;-77
2021/04/16 00:36:01;;;;;;;;;;;;;;;-3.76;100.00;94307.59;5096094;28;19928;-76
2021/04/16 00:38:26;;;;;;;;;;;;;;;-3.86;100.00;94314.19;5096061;28;20394;-76
2021/04/16 00:40:58;;;;;;;;;;;;;;;-4.04;100.00;94300.94;5096115;28;19931;-76
2021/04/16 00:43:25;;;;;;;;;;;;;;;-4.11;100.00;94306.41;5095901;28;19924;-77
2021/04/16 00:45:54;;;;;;;;;;;;;;;-4.10;100.00;94297.03;5095665;28;20018;-77
2021/04/16 00:48:25;;;;;;;;;;;;;;;-4.06;100.00;94295.09;5095462;28;20291;-77
2021/04/16 00:50:53;;;;;;;;;;;;;;;-4.06;100.00;94300.19;5095613;28;20297;-77
2021/04/16 00:53:20;;;;;;;;;;;;;;;-4.11;100.00;94292.88;5095647;28;19931;-77
2021/04/16 00:55:47;;;;;;;;;;;;;;;-4.22;100.00;94288.44;5095578;28;19928;-76
2021/04/16 00:58:14;;;;;;;;;;;;;;;-4.18;100.00;94289.91;5095595;28;20022;-77
2021/04/16 01:00:41;;;;;;;;;;;;;;;-4.22;100.00;94287.63;5095620;28;19924;-77
2021/04/16 01:03:08;;;;;;;;;;;;;;;-4.29;100.00;94289.75;5094765;28;19924;-77
2021/04/16 01:05:35;;;;;;;;;;;;;;;-4.32;100.00;94278.03;5095538;28;19924;-77
2021/04/16 01:08:01;;;;;;;;;;;;;;;-4.30;100.00;94288.13;5095289;28;19932;-76
2021/04/16 01:10:26;;;;;;;;;;;;;;;-4.47;100.00;94284.91;5094945;28;20298;-76
2021/04/16 01:12:53;;;;;;;;;;;;;;;-4.54;100.00;94283.66;5095178;28;19924;-77
2021/04/16 01:15:28;;;;;;;;;;;;;;;-4.55;100.00;94278.66;5095404;28;19953;-77
2021/04/16 01:17:56;;;;;;;;;;;;;;;-4.55;100.00;94284.56;5095135;28;19924;-77
2021/04/16 01:20:28;;;;;;;;;;;;;;;-4.62;100.00;94280.78;5094794;28;19930;-77
2021/04/16 01:23:01;;;;;;;;;;;;;;;-4.63;100.00;94284.22;5095095;28;19924;-76
2021/04/16 01:25:31;;;;;;;;;;;;;;;-4.62;100.00;94282.53;5094699;28;20382;-77
2021/04/16 01:28:04;;;;;;;;;;;;;;;-4.55;100.00;94279.47;5095046;28;19931;-77
2021/04/16 01:30:31;;;;;;;;;;;;;;;-4.54;100.00;94278.56;5095228;28;19924;-77
2021/04/16 01:32:58;;;;;;;;;;;;;;;-4.51;100.00;94272.47;5094773;28;19931;-76
2021/04/16 01:35:26;;;;;;;;;;;;;;;-4.44;100.00;94267.81;5094923;28;19930;-76
2021/04/16 01:37:52;;;;;;;;;;;;;;;-4.45;100.00;94264.44;5094780;28;19992;-76
2021/04/16 01:40:24;;;;;;;;;;;;;;;-4.60;100.00;94267.94;5094653;28;20446;-77
2021/04/16 01:42:50;;;;;;;;;;;;;;;-4.58;100.00;94266.13;5094872;28;19924;-77
2021/04/16 01:45:22;;;;;;;;;;;;;;;-4.60;100.00;94273.03;5094398;28;19986;-77
2021/04/16 01:47:52;;;;;;;;;;;;;;;-4.66;100.00;94269.97;5094327;28;19924;-77
2021/04/16 01:50:18;;;;;;;;;;;;;;;-4.63;100.00;94268.94;5094625;28;20354;-76
2021/04/16 01:52:44;;;;;;;;;;;;;;;-4.49;100.00;94263.00;5094181;28;19924;-77
2021/04/16 01:55:10;;;;;;;;;;;;;;;-4.51;100.00;94272.47;5094546;28;19930;-76
2021/04/16 01:57:36;;;;;;;;;;;;;;;-4.51;100.00;94260.56;5094327;28;20375;-77
2021/04/16 02:00:06;;;;;;;;;;;;;;;-4.53;100.00;94259.84;5094617;28;19932;-76
2021/04/16 02:02:33;;;;;;;;;;;;;;;-4.58;100.00;94261.88;5094693;28;20023;-77
2021/04/16 02:04:59;;;;;;;;;;;;;;;-4.64;100.00;94262.25;5094004;28;19924;-77
2021/04/16 02:07:28;;;;;;;;;;;;;;;-4.66;100.00;94261.53;5094205;28;19928;-76
2021/04/16 02:09:53;;;;;;;;;;;;;;;-4.65;100.00;94260.59;5094065;28;20018;-77
2021/04/16 02:12:21;;;;;;;;;;;;;;;-4.76;100.00;94256.19;5093963;28;20027;-77
2021/04/16 02:14:47;;;;;;;;;;;;;;;-4.86;100.00;94260.22;5093998;28;19923;-76
2021/04/16 02:17:21;;;;;;;;;;;;;;;-4.91;100.00;94260.50;5094254;28;19941;-75
2021/04/16 02:19:47;;;;;;;;;;;;;;;-4.98;100.00;94259.22;5094141;28;19924;-77
2021/04/16 02:22:18;;;;;;;;;;;;;;;-5.05;100.00;94261.34;5093971;28;19924;-76
2021/04/16 02:24:44;;;;;;;;;;;;;;;-4.90;100.00;94258.78;5094030;28;19924;-76
2021/04/16 02:27:10;;;;;;;;;;;;;;;-4.94;100.00;94255.59;5093988;28;19931;-76
2021/04/16 02:29:38;;;;;;;;;;;;;;;-5.02;100.00;94260.34;5093401;28;20012;-77
2021/04/16 02:32:06;;;;;;;;;;;;;;;-5.05;100.00;94247.81;5093970;28;19931;-77
2021/04/16 02:34:35;;;;;;;;;;;;;;;-5.07;100.00;94250.44;5093718;28;19971;-77
2021/04/16 02:37:02;;;;;;;;;;;;;;;-5.18;100.00;94252.81;5093673;28;19924;-77
2021/04/16 02:39:29;;;;;;;;;;;;;;;-5.09;100.00;94246.38;5093589;28;19924;-77
2021/04/16 02:41:57;;;;;;;;;;;;;;;-5.19;100.00;94250.41;5093446;28;19946;-77
2021/04/16 02:44:23;;;;;;;;;;;;;;;-5.27;100.00;94251.66;5093567;28;20441;-76
2021/04/16 02:46:51;;;;;;;;;;;;;;;-5.18;100.00;94242.63;5093619;28;19931;-77
2021/04/16 02:49:17;;;;;;;;;;;;;;;-5.28;100.00;94239.88;5093578;28;19924;-76
2021/04/16 02:51:47;;;;;;;;;;;;;;;-5.45;100.00;94232.44;5093038;28;20354;-76
2021/04/16 02:54:15;;;;;;;;;;;;;;;-5.45;100.00;94235.78;5093601;28;19985;-77
2021/04/16 02:56:41;;;;;;;;;;;;;;;-5.48;100.00;94240.22;5092894;28;19953;-77
2021/04/16 02:59:08;;;;;;;;;;;;;;;-5.58;100.00;94242.50;5093304;28;19924;-77
2021/04/16 03:01:39;;;;;;;;;;;;;;;-5.64;100.00;94240.34;5093579;28;19924;-76
2021/04/16 03:04:05;;;;;;;;;;;;;;;-5.66;100.00;94247.22;5093480;28;19932;-76
2021/04/16 03:06:30;;;;;;;;;;;;;;;-5.69;100.00;94244.91;5093343;28;19924;-76
2021/04/16 03:08:59;;;;;;;;;;;;;;;-5.72;100.00;94248.41;5093100;28;19924;-76
2021/04/16 03:11:28;;;;;;;;;;;;;;;-5.66;100.00;94245.53;5092854;28;19924;-76
2021/04/16 03:13:54;;;;;;;;;;;;;;;-5.72;100.00;94237.44;5093120;28;19971;-76
2021/04/16 03:16:26;;;;;;;;;;;;;;;-5.79;100.00;94249.69;5093537;28;19946;-76
2021/04/16 03:18:52;;;;;;;;;;;;;;;-5.73;100.00;94245.97;5093382;28;19924;-77
2021/04/16 03:21:18;;;;;;;;;;;;;;;-5.66;100.00;94240.44;5093349;28;19925;-76
2021/04/16 03:23:47;;;;;;;;;;;;;;;-5.61;100.00;94237.63;5092994;28;19990;-76
2021/04/16 03:26:16;;;;;;;;;;;;;;;-5.64;100.00;94238.63;5093060;28;19924;-78
2021/04/16 03:28:43;;;;;;;;;;;;;;;-5.65;100.00;94236.97;5093211;28;19970;-77
2021/04/16 03:31:09;;;;;;;;;;;;;;;-5.51;100.00;94241.25;5093201;28;19924;-78
2021/04/16 03:33:35;;;;;;;;;;;;;;;-5.51;100.00;94235.31;5093297;28;20411;-76
2021/04/16 03:36:01;;;;;;;;;;;;;;;-5.55;100.00;94236.44;5092857;28;19931;-76
2021/04/16 03:38:28;;;;;;;;;;;;;;;-5.61;100.00;94235.09;5093280;28;19934;-77
2021/04/16 03:40:57;;;;;;;;;;;;;;;-5.61;100.00;94227.47;5092997;28;19924;-77
2021/04/16 03:43:26;;;;;;;;;;;;;;;-5.72;100.00;94233.16;5093203;28;19928;-77
2021/04/16 03:45:51;;;;;;;;;;;;;;;-5.82;100.00;94232.88;5093383;28;19931;-77
2021/04/16 03:48:17;;;;;;;;;;;;;;;-5.81;100.00;94234.53;5092913;28;20015;-77
2021/04/16 03:50:43;;;;;;;;;;;;;;;-5.72;100.00;94232.34;5092998;28;19977;-77
2021/04/16 03:53:09;;;;;;;;;;;;;;;-5.79;100.00;94232.72;5092764;28;19976;-78
2021/04/16 03:55:36;;;;;;;;;;;;;;;-5.87;100.00;94232.34;5092896;28;19928;-76
2021/04/16 03:58:05;;;;;;;;;;;;;;;-5.64;100.00;94236.06;5092838;28;19930;-76
2021/04/16 04:00:36;;;;;;;;;;;;;;;-5.66;100.00;94231.97;5092988;28;19931;-78
2021/04/16 04:03:09;;;;;;;;;;;;;;;-5.86;100.00;94230.63;5092654;28;19931;-75
2021/04/16 04:05:35;;;;;;;;;;;;;;;-6.03;100.00;94239.25;5092723;28;19924;-76
2021/04/16 04:08:05;;;;;;;;;;;;;;;-6.10;100.00;94238.81;5093930;28;19924;-78
2021/04/16 04:10:35;;;;;;;;;;;;;;;-6.04;100.00;94248.63;5096660;28;20278;-78
2021/04/16 04:13:08;;;;;;;;;;;;;;;-6.06;100.00;94244.50;5096394;28;19924;-77
2021/04/16 04:15:35;;;;;;;;;;;;;;;-6.04;100.00;94241.00;5096274;28;20026;-77
2021/04/16 04:18:04;;;;;;;;;;;;;;;-6.13;100.00;94246.59;5096187;28;19924;-77
2021/04/16 04:20:31;;;;;;;;;;;;;;;-6.16;100.00;94249.31;5096462;28;20306;-76
2021/04/16 04:23:00;;;;;;;;;;;;;;;-6.17;100.00;94242.59;5096006;28;20018;-78
2021/04/16 04:25:29;;;;;;;;;;;;;;;-6.15;100.00;94240.78;5095722;28;19932;-76
2021/04/16 04:27:55;;;;;;;;;;;;;;;-6.16;100.00;94246.75;5096215;28;19924;-77
2021/04/16 04:30:22;;;;;;;;;;;;;;;-5.95;100.00;94240.41;5096074;28;19924;-77
2021/04/16 04:32:49;;;;;;;;;;;;;;;-5.97;100.00;94244.81;5096336;28;19976;-76
2021/04/16 04:35:17;;;;;;;;;;;;;;;-5.81;100.00;94244.72;5095793;28;19970;-78
2021/04/16 04:37:48;;;;;;;;;;;;;;;-5.88;100.00;94238.31;5096150;28;20317;-76
2021/04/16 04:40:15;;;;;;;;;;;;;;;-5.78;100.00;94239.44;5095886;28;19924;-77
2021/04/16 04:42:46;;;;;;;;;;;;;;;-5.83;100.00;94246.53;5095527;28;19924;-75
2021/04/16 04:45:13;;;;;;;;;;;;;;;-5.78;100.00;94246.22;5095810;28;20015;-78
2021/04/16 04:47:39;;;;;;;;;;;;;;;-5.80;100.00;94248.06;5095758;28;19962;-77
2021/04/16 04:50:15;;;;;;;;;;;;;;;-5.91;100.00;94247.88;5095525;28;19924;-77
2021/04/16 04:52:41;;;;;;;;;;;;;;;-5.97;100.00;94244.81;5095714;28;19928;-77
2021/04/16 04:55:11;;;;;;;;;;;;;;;-5.96;100.00;94246.41;5095644;28;19924;-77
2021/04/16 04:57:40;;;;;;;;;;;;;;;-5.99;100.00;94256.78;5095572;28;19932;-77
2021/04/16 05:00:07;;;;;;;;;;;;;;;-5.85;100.00;94243.22;5095755;28;19974;-77
2021/04/16 05:02:33;;;;;;;;;;;;;;;-5.81;100.00;94248.94;5095722;28;19924;-76
2021/04/16 05:04:59;;;;;;;;;;;;;;;-5.74;100.00;94255.34;5095226;28;20336;-78
2021/04/16 05:07:25;;;;;;;;;;;;;;;-5.79;100.00;94263.22;5095037;28;19928;-78
2021/04/16 05:09:54;;;;;;;;;;;;;;;-5.77;100.00;94258.84;5094693;28;20364;-75
2021/04/16 05:12:21;;;;;;;;;;;;;;;-5.71;100.00;94249.22;5095543;28;19928;-75
2021/04/16 05:14:47;;;;;;;;;;;;;;;-5.53;100.00;94260.03;5095405;28;19924;-77
2021/04/16 05:17:19;;;;;;;;;;;;;;;-5.43;100.00;94253.50;5095273;28;19939;-76
2021/04/16 05:19:45;;;;;;;;;;;;;;;-5.25;100.00;94260.00;5094315;28;19971;-77
2021/04/16 05:22:10;;;;;;;;;;;;;;;-5.22;100.00;94256.47;5095164;28;19924;-76
2021/04/16 05:24:41;;;;;;;;;;;;;;;-5.14;100.00;94263.66;5094915;28;20379;-77
2021/04/16 05:27:08;;;;;;;;;;;;;;;-4.88;100.00;94260.31;5095134;28;19927;-75
2021/04/16 05:29:36;;;;;;;;;;;;;;;-4.86;100.00;94258.50;5094856;28;20410;-76
2021/04/16 05:32:05;;;;;;;;;;;;;;;-4.80;100.00;94254.72;5094995;28;19924;-76
2021/04/16 05:34:30;;;;;;;;;;;;;;;-4.76;100.00;94257.91;5095097;28;19924;-77
2021/04/16 05:36:56;;;;;;;;;;;;;;;-4.68;100.00;94253.97;5094622;28;19930;-77
2021/04/16 05:39:23;;;;;;;;;;;;;;;-4.62;100.00;94255.31;5094680;28;20023;-76
2021/04/16 05:41:49;;;;;;;;;;;;;;;-4.52;100.00;94248.72;5095012;28;19924;-77
2021/04/16 05:44:15;;;;;;;;;;;;;;;-4.42;100.00;94243.03;5094214;28;19924;-77
2021/04/16 05:46:41;;;;;;;;;;;;;;;-4.40;100.00;94249.66;5094445;28;19932;-77
2021/04/16 05:49:08;;;;;;;;;;;;;;;-4.33;100.00;94256.03;5094884;28;19931;-77
2021/04/16 05:51:34;;;;;;;;;;;;;;;-4.20;100.00;94253.47;5094282;28;20386;-77
2021/04/16 05:54:03;;;;;;;;;;;;;;;-4.11;100.00;94254.63;5094799;28;19924;-76
2021/04/16 05:56:28;;;;;;;;;;;;;;;-4.02;100.00;94256.56;5094317;28;19969;-77
2021/04/16 05:58:55;;;;;;;;;;;;;;;-3.95;100.00;94262.06;5094592;28;19924;-76
2021/04/16 06:01:21;;;;;;;;;;;;;;;-3.89;100.00;94254.03;5094498;28;19931;-77
2021/04/16 06:03:47;;;;;;;;;;;;;;;-3.81;100.00;94259.44;5094062;28;20329;-77
2021/04/16 06:06:14;;;;;;;;;;;;;;;-3.67;100.00;94252.59;5094033;28;19933;-75
2021/04/16 06:08:44;;;;;;;;;;;;;;;-3.58;100.00;94254.53;5094373;28;19931;-77
2021/04/16 06:11:14;;;;;;;;;;;;;;;-3.37;100.00;94260.72;5093515;28;19931;-77
2021/04/16 06:13:40;;;;;;;;;;;;;;;-3.15;100.00;94261.81;5094196;28;20427;-77
2021/04/16 06:16:09;;;;;;;;;;;;;;;-3.09;100.00;94258.84;5094084;28;19928;-77
2021/04/16 06:18:38;;;;;;;;;;;;;;;-3.02;100.00;94257.50;5093704;28;19928;-76
2021/04/16 06:21:05;;;;;;;;;;;;;;;-3.02;100.00;94251.59;5094067;28;19924;-76
2021/04/16 06:23:31;;;;;;;;;;;;;;;-3.01;100.00;94256.59;5094315;28;19965;-76
2021/04/16 06:25:57;;;;;;;;;;;;;;;-2.87;100.00;94252.25;5094047;28;19928;-77
2021/04/16 06:28:29;;;;;;;;;;;;;;;-2.85;100.00;94258.06;5093570;28;19928;-76
2021/04/16 06:30:55;;;;;;;;;;;;;;;-2.82;100.00;94252.75;5093125;28;20328;-76
2021/04/16 06:33:24;;;;;;;;;;;;;;;-2.69;100.00;94256.06;5093595;28;19953;-77
2021/04/16 06:35:51;;;;;;;;;;;;;;;-2.56;100.00;94250.13;5094081;28;19963;-77
2021/04/16 06:38:18;;;;;;;;;;;;;;;-2.36;100.00;94246.94;5093830;28;19924;-78
2021/04/16 06:40:50;;;;;;;;;;;;;;;-2.26;100.00;94242.78;5093735;28;19924;-77
2021/04/16 06:43:17;;;;;;;;;;;;;;;-2.04;100.00;94248.91;5093723;28;19935;-77
2021/04/16 06:45:44;;;;;;;;;;;;;;;-1.96;100.00;94249.16;5093461;28;19924;-77
2021/04/16 06:48:12;;;;;;;;;;;;;;;-1.72;100.00;94240.56;5093321;28;19925;-76
2021/04/16 06:50:44;;;;;;;;;;;;;;;-1.72;100.00;94251.63;5092902;28;21465;-76
2021/04/16 06:53:16;;;;;;;;;;;;;;;-1.43;100.00;94242.69;5093696;28;19947;-77
2021/04/16 06:55:50;;;;;;;;;;;;;;;-1.31;100.00;94244.34;5093401;28;19931;-76
2021/04/16 06:58:18;;;;;;;;;;;;;;;-1.23;100.00;94236.88;5093461;28;19935;-76
2021/04/16 07:00:47;;;;;;;;;;;;;;;-1.06;100.00;94245.03;5093261;28;19931;-77
2021/04/16 07:03:20;;;;;;;;;;;;;;;-0.83;100.00;94248.38;5093511;28;19931;-77
2021/04/16 07:05:50;;;;;;;;;;;;;;;-0.76;100.00;94245.19;5093467;28;19978;-78
2021/04/16 07:08:19;;;;;;;;;;;;;;;-0.64;100.00;94234.91;5093051;28;19928;-77
2021/04/16 07:10:45;;;;;;;;;;;;;;;-0.44;100.00;94238.47;5093026;28;19925;-77
2021/04/16 07:13:20;;;;;;;;;;;;;;;-0.21;100.00;94234.88;5093151;28;19977;-77
2021/04/16 07:15:47;;;;;;;;;;;;;;;-0.10;100.00;94235.75;5092882;28;19932;-77
2021/04/16 07:18:15;;;;;;;;;;;;;;;-0.44;100.00;94241.84;5093425;28;19924;-78
2021/04/16 07:20:42;;;;;;;;;;;;;;;-0.33;100.00;94240.16;5093370;28;19924;-77
2021/04/16 07:23:09;;;;;;;;;;;;;;;-0.31;100.00;94244.25;5092913;28;20306;-77
2021/04/16 07:25:46;;;;;;;;;;;;;;;-0.25;100.00;94237.81;5093076;28;19924;-76
2021/04/16 07:28:15;;;;;;;;;;;;;;;0.09;100.00;94246.16;5093368;28;19955;-78
2021/04/16 07:30:44;;;;;;;;;;;;;;;0.52;100.00;94241.81;5092815;28;20542;-79
2021/04/16 07:33:26;;;;;;;;;;;;;;;1.31;100.00;94243.72;5093165;28;19924;-79
2021/04/16 07:35:52;;;;;;;;;;;;;;;1.93;98.68;94238.34;5091080;28;19924;-79
2021/04/16 07:38:29;;;;;;;;;;;;;;;2.64;94.09;94226.84;5093614;28;19930;-79
2021/04/16 07:41:10;;;;;;;;;;;;;;;3.22;89.36;94231.75;5092977;28;19924;-78
2021/04/16 07:43:47;;;;;;;;;;;;;;;3.07;83.99;94233.97;5096840;28;19924;-79
2021/04/16 07:46:37;;;;;;;;;;;;;;;3.27;86.22;94232.13;5097052;28;20462;-78
2021/04/16 07:49:30;;;;;;;;;;;;;;;3.07;85.00;94233.97;5081219;28;19947;-78
2021/04/16 07:51:57;;;;;;;;;;;;;;;3.43;86.16;94239.25;5060398;28;20135;-79
2021/04/16 07:54:29;;;;;;;;;;;;;;;3.59;79.99;94240.34;5096875;28;20011;-79
2021/04/16 07:57:16;;;;;;;;;;;;;;;3.51;82.10;94243.66;5096821;28;20345;-78
2021/04/16 07:59:59;;;;;;;;;;;;;;;3.63;78.08;94239.91;5091175;28;19924;-78
2021/04/16 08:02:35;;;;;;;;;;;;;;;4.15;78.05;94251.38;5096823;28;20275;-78
2021/04/16 08:05:12;;;;;;;;;;;;;;;4.61;78.94;94244.25;5096514;28;19969;-77
2021/04/16 08:07:38;;;;;;;;;;;;;;;4.86;73.11;94237.44;5096905;28;19924;-78
2021/04/16 08:10:15;;;;;;;;;;;;;;;4.95;72.23;94238.31;5096615;28;20272;-78
2021/04/16 08:12:41;;;;;;;;;;;;;;;4.25;75.65;94236.59;5096418;28;19924;-78
2021/04/16 08:15:13;;;;;;;;;;;;;;;4.07;76.59;94239.97;5096264;28;19928;-81
2021/04/16 08:17:40;;;;;;;;;;;;;;;3.77;74.12;94240.38;5096391;28;19924;-77
2021/04/16 08:20:20;;;;;;;;;;;;;;;4.03;75.31;94241.25;5096380;28;20302;-82
2021/04/16 08:22:49;;;;;;;;;;;;;;;4.08;75.00;94243.41;5096419;28;19971;-80
2021/04/16 08:25:18;;;;;;;;;;;;;;;4.05;75.12;94244.50;5096401;28;19924;-78
2021/04/16 08:27:46;;;;;;;;;;;;;;;3.69;75.70;94249.66;5096162;28;19931;-80
2021/04/16 08:30:22;;;;;;;;;;;;;;;3.60;74.84;94250.53;5094149;28;19932;-79
2021/04/16 08:32:55;;;;;;;;;;;;;;;3.23;76.44;94250.59;5075907;28;19969;-76
2021/04/16 08:35:22;;;;;;;;;;;;;;;3.18;77.09;94256.22;5075739;28;20379;-76
2021/04/16 08:37:51;;;;;;;;;;;;;;;3.49;74.55;94250.75;5075731;28;19925;-77
2021/04/16 08:40:24;;;;;;;;;;;;;;;3.48;76.96;94256.84;5075515;28;19931;-76
2021/04/16 08:42:50;;;;;;;;;;;;;;;3.75;76.36;94253.44;5075869;28;19962;-76
2021/04/16 08:45:17;;;;;;;;;;;;;;;3.65;74.88;94252.69;5075803;28;20367;-76
2021/04/16 08:47:48;;;;;;;;;;;;;;;3.56;72.47;94254.34;5075449;28;19931;-76
2021/04/16 08:50:14;;;;;;;;;;;;;;;3.32;72.35;94252.34;5075664;28;19928;-78
2021/04/16 08:52:44;;;;;;;;;;;;;;;3.39;71.66;94252.56;5075441;28;19955;-78
2021/04/16 08:55:14;;;;;;;;;;;;;;;3.38;72.55;94256.09;5074894;28;20014;-80
2021/04/16 08:57:49;;;;;;;;;;;;;;;3.41;75.43;94254.03;5075621;28;19930;-80
2021/04/16 09:00:19;;;;;;;;;;;;;;;3.76;71.11;94252.44;5075500;28;20390;-80
2021/04/16 09:02:48;;;;;;;;;;;;;;;4.02;72.04;94249.16;5075406;28;19971;-80
2021/04/16 09:05:15;;;;;;;;;;;;;;;4.15;70.27;94249.59;5075128;28;19924;-80
2021/04/16 09:07:42;;;;;;;;;;;;;;;4.20;69.97;94251.72;5075370;28;19967;-77
2021/04/16 09:10:26;;;;;;;;;;;;;;;4.02;69.89;94251.72;5075318;28;19931;-78
2021/04/16 09:12:54;;;;;;;;;;;;;;;4.16;69.40;94246.03;5077515;28;19979;-77
2021/04/16 09:15:38;;;;;;;;;;;;;;;4.06;68.90;94247.88;5095139;28;19931;-79
2021/04/16 09:18:22;;;;;;;;;;;;;;;4.02;71.71;94249.16;5095156;28;20329;-78
2021/04/16 09:21:06;;;;;;;;;;;;;;;3.69;70.46;94244.47;5095103;28;19923;-82
2021/04/16 09:23:49;;;;;;;;;;;;;;;3.60;70.80;94242.78;5094832;28;20421;-77
2021/04/16 09:26:41;;;;;;;;;;;;;;;3.17;71.70;94241.69;5088008;28;19924;-80
2021/04/16 09:29:22;;;;;;;;;;;;;;;3.50;72.70;94244.63;5094965;28;19969;-80
2021/04/16 09:31:52;;;;;;;;;;;;;;;4.21;71.98;94237.81;5094856;28;19931;-78
2021/04/16 09:34:19;;;;;;;;;;;;;;;4.69;68.79;94235.72;5094695;28;19970;-82
2021/04/16 09:36:48;;;;;;;;;;;;;;;4.90;65.65;94240.53;5095245;28;19924;-82
2021/04/16 09:39:16;;;;;;;;;;;;;;;4.98;64.14;94245.75;5095074;28;19928;-81
2021/04/16 09:41:45;;;;;;;;;;;;;;;5.37;61.70;94245.25;5094911;28;19930;-81
2021/04/16 09:44:30;;;;;;;;;;;;;;;5.71;64.81;94246.97;5094818;28;20314;-82
2021/04/16 09:47:01;;;;;;;;;;;;;;;5.77;63.81;94246.34;5093456;28;19928;-81
2021/04/16 09:49:31;;;;;;;;;;;;;;;4.79;68.90;94244.19;5094651;28;20035;-81
2021/04/16 09:52:01;;;;;;;;;;;;;;;4.85;71.06;94246.16;5094200;28;20324;-80
2021/04/16 09:54:34;;;;;;;;;;;;;;;4.40;71.93;94242.81;5094409;28;19992;-80
2021/04/16 09:57:23;;;;;;;;;;;;;;;4.58;72.04;94241.94;5094672;28;19933;-80
2021/04/16 09:59:49;;;;;;;;;;;;;;;4.48;72.48;94239.50;5094469;28;19953;-79
2021/04/16 10:02:19;;;;;;;;;;;;;;;4.21;72.78;94237.81;5094336;28;20378;-80
2021/04/16 10:04:51;;;;;;;;;;;;;;;4.71;71.90;94236.38;5093826;28;20027;-81
2021/04/16 10:07:18;;;;;;;;;;;;;;;4.57;70.52;94240.34;5093948;28;19928;-80
2021/04/16 10:09:44;;;;;;;;;;;;;;;4.26;70.83;94240.78;5094107;28;20430;-80
2021/04/16 10:12:12;;;;;;;;;;;;;;;3.75;73.04;94242.25;5094056;28;19928;-79
2021/04/16 10:14:39;;;;;;;;;;;;;;;3.53;73.52;94239.19;5094282;28;19924;-79
2021/04/16 10:17:06;;;;;;;;;;;;;;;3.83;73.13;94240.59;5093883;28;19931;-80
2021/04/16 10:19:35;;;;;;;;;;;;;;;3.77;71.85;94241.19;5094092;28;20002;-81
2021/04/16 10:22:08;;;;;;;;;;;;;;;4.00;72.06;94243.31;5093592;28;20379;-81
2021/04/16 12:39:50;;;;;;;;;;;;;;;3.89;79.83;94239.19;5097910;28;19946;-87
2021/04/16 12:42:16;;;;;;;;;;;;;;;4.22;79.78;94239.47;5100161;28;19931;-88
2021/04/16 12:44:44;;;;;;;;;;;;;;;4.25;77.12;94224.47;5097856;28;19924;-84
2021/04/16 12:47:11;;;;;;;;;;;;;;;4.37;77.26;94227.59;5098001;28;19932;-87
2021/04/16 12:49:40;;;;;;;;;;;;;;;4.81;75.77;94224.16;5099278;28;19928;-84
2021/04/16 12:52:07;;;;;;;;;;;;;;;4.85;75.51;94232.44;5101266;28;19927;-85
2021/04/16 12:54:34;;;;;;;;;;;;;;;5.16;74.08;94232.72;5096466;28;20387;-81
2021/04/16 12:56:59;;;;;;;;;;;;;;;5.41;71.21;94225.84;5095957;28;19924;-80
2021/04/16 12:59:25;;;;;;;;;;;;;;;5.25;72.59;94231.00;5096361;28;19947;-83
2021/04/16 13:01:53;;;;;;;;;;;;;;;5.47;70.95;94230.41;5096123;28;20276;-82
2021/04/16 13:04:19;;;;;;;;;;;;;;;5.24;72.62;94226.78;5095752;28;19977;-80
2021/04/16 13:06:46;;;;;;;;;;;;;;;5.71;71.57;94229.66;5095551;28;19931;-82
2021/04/16 13:09:14;;;;;;;;;;;;;;;5.89;69.38;94219.13;5095525;28;20321;-84
2021/04/16 13:11:40;;;;;;;;;;;;;;;5.72;70.97;94222.69;5095393;28;20383;-83
2021/04/16 13:14:05;;;;;;;;;;;;;;;5.36;70.74;94222.91;5095738;28;19931;-83
2021/04/16 13:16:31;;;;;;;;;;;;;;;5.46;72.15;94221.03;5095353;28;19931;-83
2021/04/16 13:19:00;;;;;;;;;;;;;;;5.44;70.58;94224.72;5094984;28;19924;-84
2021/04/16 13:21:28;;;;;;;;;;;;;;;5.33;71.03;94223.25;5095454;28;19931;-85
2021/04/16 13:23:53;;;;;;;;;;;;;;;4.87;72.95;94220.94;5095633;28;19924;-81
2021/04/16 13:26:20;;;;;;;;;;;;;;;4.80;72.08;94218.16;5095682;28;19985;-84
2021/04/16 13:28:46;;;;;;;;;;;;;;;4.90;72.40;94219.84;5095481;28;19924;-81
2021/04/16 13:31:14;;;;;;;;;;;;;;;4.95;73.15;94215.81;5095751;28;20396;-85
2021/04/16 13:33:41;;;;;;;;;;;;;;;4.90;73.04;94215.47;5095332;28;19930;-83
2021/04/16 13:36:09;;;;;;;;;;;;;;;4.90;71.79;94220.66;5095329;28;19931;-81
2021/04/16 13:38:36;;;;;;;;;;;;;;;4.67;72.45;94210.03;5095321;28;20014;-81
2021/04/16 13:41:02;;;;;;;;;;;;;;;4.10;73.85;94205.31;5095512;28;19924;-84
2021/04/16 13:43:32;;;;;;;;;;;;;;;4.32;74.59;94204.00;5095374;28;19924;-86
2021/04/16 13:45:58;;;;;;;;;;;;;;;4.37;73.06;94206.94;5095288;28;19924;-80
2021/04/16 13:48:26;;;;;;;;;;;;;;;4.04;73.89;94209.28;5095303;28;20389;-82
2021/04/16 13:50:52;;;;;;;;;;;;;;;4.37;73.65;94201.75;5095150;28;19931;-83
2021/04/16 13:53:19;;;;;;;;;;;;;;;4.63;72.77;94195.78;5094824;28;19924;-80
2021/04/16 13:55:46;;;;;;;;;;;;;;;4.76;70.87;94200.53;5094942;28;19986;-82
2021/04/16 13:58:14;;;;;;;;;;;;;;;4.77;70.32;94202.16;5094987;28;19924;-82
2021/04/16 14:00:41;;;;;;;;;;;;;;;4.65;70.93;94196.44;5094637;28;19967;-82
2021/04/16 14:03:11;;;;;;;;;;;;;;;4.67;69.89;94199.69;5094504;28;20390;-82
2021/04/16 14:05:37;;;;;;;;;;;;;;;5.05;68.82;94187.25;5094661;28;19928;-81
2021/04/16 14:08:06;;;;;;;;;;;;;;;5.04;70.21;94189.97;5095050;28;20013;-79
2021/04/16 14:10:32;;;;;;;;;;;;;;;5.17;69.07;94201.50;5094432;28;19924;-81
2021/04/16 14:12:58;;;;;;;;;;;;;;;5.59;68.36;94186.09;5094520;28;19984;-81
2021/04/16 14:15:24;;;;;;;;;;;;;;;5.85;69.00;94196.31;5094247;28;19931;-77
2021/04/16 14:17:53;;;;;;;;;;;;;;;5.82;69.49;94191.47;5094183;28;19924;-82
2021/04/16 14:20:22;;;;;;;;;;;;;;;5.43;70.07;94192.03;5094873;28;19947;-81
2021/04/16 14:22:49;;;;;;;;;;;;;;;5.27;71.17;94200.56;5094915;28;19924;-82
2021/04/16 14:25:18;;;;;;;;;;;;;;;5.25;72.39;94197.34;5094900;28;19924;-84
2021/04/16 14:27:44;;;;;;;;;;;;;;;4.92;71.63;94198.00;5095051;28;19924;-85
2021/04/16 14:30:12;;;;;;;;;;;;;;;5.13;71.15;94201.97;5094317;28;19928;-81
2021/04/16 14:32:38;;;;;;;;;;;;;;;4.99;72.69;94198.19;5094034;28;20363;-84
2021/04/16 14:35:06;;;;;;;;;;;;;;;5.06;72.78;94193.22;5094483;28;19938;-86
2021/04/16 14:37:32;;;;;;;;;;;;;;;4.73;73.05;94185.31;5094549;28;19931;-83
2021/04/16 14:39:58;;;;;;;;;;;;;;;4.04;75.74;94190.38;5094339;28;20429;-88
2021/04/16 14:42:24;;;;;;;;;;;;;;;4.15;75.32;94197.09;5094529;28;19982;-85
2021/04/16 14:44:49;;;;;;;;;;;;;;;4.20;78.00;94193.09;5094657;28;20387;-82
2021/04/16 14:47:15;;;;;;;;;;;;;;;4.37;76.54;94195.78;5093669;28;19924;-84
2021/04/16 14:49:41;;;;;;;;;;;;;;;4.54;75.72;94191.53;5094604;28;20019;-85
2021/04/16 14:52:10;;;;;;;;;;;;;;;4.23;77.68;94194.56;5093377;28;20409;-82
2021/04/16 14:54:37;;;;;;;;;;;;;;;3.96;79.29;94187.75;5094102;28;19928;-84
2021/04/16 14:57:04;;;;;;;;;;;;;;;3.96;78.90;94182.56;5093735;28;19924;-82
2021/04/16 14:59:32;;;;;;;;;;;;;;;3.86;79.94;94172.31;5093898;28;20375;-82
2021/04/16 15:01:58;;;;;;;;;;;;;;;3.58;80.71;94194.84;5093753;28;19936;-77
2021/04/16 15:04:24;;;;;;;;;;;;;;;3.43;82.95;94191.94;5094281;28;19994;-82
2021/04/16 15:06:53;;;;;;;;;;;;;;;3.54;83.22;94194.31;5093555;28;19931;-78
2021/04/16 15:09:20;;;;;;;;;;;;;;;3.58;84.62;94190.50;5093549;28;19924;-80